sensor_id;sensor_type;location;lat;lon;timestamp;temperature;humidity
20284;DHT22;10301;50.832;4.080;2022-08-19T00:00:15;21.80;99.90
20284;DHT22;10301;50.832;4.080;2022-08-19T00:02:42;21.80;99.90
20284;DHT22;10301;50.832;4.080;2022-08-19T00:05:09;21.80;99.90
20284;DHT22;10301;50.832;4.080;2022-08-19T00:07:35;21.80;99.90
20284;DHT22;10301;50.832;4.080;2022-08-19T00:10:00;21.80;99.90
20284;DHT22;10301;50.832;4.080;2022-08-19T00:12:26;22.10;99.90
20284;DHT22;10301;50.832;4.080;2022-08-19T00:14:52;22.10;99.90
20284;DHT22;10301;50.832;4.080;2022-08-19T00:17:19;22.00;99.90
20284;DHT22;10301;50.832;4.080;2022-08-19T00:19:45;21.80;99.90
20284;DHT22;10301;50.832;4.080;2022-08-19T00:22:11;21.70;99.90
20284;DHT22;10301;50.832;4.080;2022-08-19T00:24:36;21.60;99.90
20284;DHT22;10301;50.832;4.080;2022-08-19T00:27:04;21.40;99.90
20284;DHT22;10301;50.832;4.080;2022-08-19T00:29:30;21.20;99.90
20284;DHT22;10301;50.832;4.080;2022-08-19T00:31:56;21.00;99.90
20284;DHT22;10301;50.832;4.080;2022-08-19T00:34:24;21.00;99.90
20284;DHT22;10301;50.832;4.080;2022-08-19T00:36:53;20.90;99.90
20284;DHT22;10301;50.832;4.080;2022-08-19T00:39:19;20.80;99.90
20284;DHT22;10301;50.832;4.080;2022-08-19T00:41:46;20.70;99.90
20284;DHT22;10301;50.832;4.080;2022-08-19T00:46:46;20.80;99.90
20284;DHT22;10301;50.832;4.080;2022-08-19T00:49:35;20.90;99.90
20284;DHT22;10301;50.832;4.080;2022-08-19T00:52:11;20.60;99.90
20284;DHT22;10301;50.832;4.080;2022-08-19T00:54:39;20.50;99.90
20284;DHT22;10301;50.832;4.080;2022-08-19T00:57:09;20.30;99.90
20284;DHT22;10301;50.832;4.080;2022-08-19T00:59:39;20.10;99.90
20284;DHT22;10301;50.832;4.080;2022-08-19T01:02:06;20.00;99.90
20284;DHT22;10301;50.832;4.080;2022-08-19T01:04:32;20.10;99.90
20284;DHT22;10301;50.832;4.080;2022-08-19T01:06:58;20.20;99.90
20284;DHT22;10301;50.832;4.080;2022-08-19T01:09:24;20.00;99.90
20284;DHT22;10301;50.832;4.080;2022-08-19T01:11:50;20.10;99.90
20284;DHT22;10301;50.832;4.080;2022-08-19T01:14:16;20.20;99.90
20284;DHT22;10301;50.832;4.080;2022-08-19T01:16:43;20.00;99.90
20284;DHT22;10301;50.832;4.080;2022-08-19T01:19:18;20.10;99.90
20284;DHT22;10301;50.832;4.080;2022-08-19T01:22:19;20.20;99.90
20284;DHT22;10301;50.832;4.080;2022-08-19T01:24:45;20.30;99.90
20284;DHT22;10301;50.832;4.080;2022-08-19T01:27:11;20.20;99.90
20284;DHT22;10301;50.832;4.080;2022-08-19T01:29:40;20.00;99.90
20284;DHT22;10301;50.832;4.080;2022-08-19T01:32:09;20.10;99.90
20284;DHT22;10301;50.832;4.080;2022-08-19T01:34:37;20.10;99.90
20284;DHT22;10301;50.832;4.080;2022-08-19T01:37:07;20.10;99.90
20284;DHT22;10301;50.832;4.080;2022-08-19T01:39:33;19.90;99.90
20284;DHT22;10301;50.832;4.080;2022-08-19T01:41:59;19.90;99.90
20284;DHT22;10301;50.832;4.080;2022-08-19T01:44:28;19.80;99.90
20284;DHT22;10301;50.832;4.080;2022-08-19T01:46:54;19.80;99.90
20284;DHT22;10301;50.832;4.080;2022-08-19T01:49:22;19.70;99.90
20284;DHT22;10301;50.832;4.080;2022-08-19T01:51:49;19.70;99.90
20284;DHT22;10301;50.832;4.080;2022-08-19T01:54:17;19.60;99.90
20284;DHT22;10301;50.832;4.080;2022-08-19T01:56:43;19.70;99.90
20284;DHT22;10301;50.832;4.080;2022-08-19T01:59:13;19.50;99.90
20284;DHT22;10301;50.832;4.080;2022-08-19T02:01:39;19.50;99.90
20284;DHT22;10301;50.832;4.080;2022-08-19T02:04:05;19.40;99.90
20284;DHT22;10301;50.832;4.080;2022-08-19T02:06:31;19.40;99.90
20284;DHT22;10301;50.832;4.080;2022-08-19T02:08:58;19.50;99.90
20284;DHT22;10301;50.832;4.080;2022-08-19T02:11:32;19.40;99.90
20284;DHT22;10301;50.832;4.080;2022-08-19T02:14:03;19.50;99.90
20284;DHT22;10301;50.832;4.080;2022-08-19T02:16:29;19.50;99.90
20284;DHT22;10301;50.832;4.080;2022-08-19T02:18:56;19.50;99.90
20284;DHT22;10301;50.832;4.080;2022-08-19T02:21:22;19.30;99.90
20284;DHT22;10301;50.832;4.080;2022-08-19T02:23:50;19.40;99.90
20284;DHT22;10301;50.832;4.080;2022-08-19T02:26:15;19.50;99.90
20284;DHT22;10301;50.832;4.080;2022-08-19T02:28:42;19.40;99.90
20284;DHT22;10301;50.832;4.080;2022-08-19T02:31:21;19.30;99.90
20284;DHT22;10301;50.832;4.080;2022-08-19T02:33:47;19.30;99.90
20284;DHT22;10301;50.832;4.080;2022-08-19T02:36:15;19.10;99.90
20284;DHT22;10301;50.832;4.080;2022-08-19T02:38:40;19.00;99.90
20284;DHT22;10301;50.832;4.080;2022-08-19T02:41:12;19.00;99.90
20284;DHT22;10301;50.832;4.080;2022-08-19T02:43:38;18.90;99.90
20284;DHT22;10301;50.832;4.080;2022-08-19T02:46:22;18.80;99.90
20284;DHT22;10301;50.832;4.080;2022-08-19T02:48:49;18.90;99.90
20284;DHT22;10301;50.832;4.080;2022-08-19T02:51:21;19.00;99.90
20284;DHT22;10301;50.832;4.080;2022-08-19T02:53:47;19.10;99.90
20284;DHT22;10301;50.832;4.080;2022-08-19T02:56:12;19.00;99.90
20284;DHT22;10301;50.832;4.080;2022-08-19T02:58:38;18.90;99.90
20284;DHT22;10301;50.832;4.080;2022-08-19T03:01:04;18.90;99.90
20284;DHT22;10301;50.832;4.080;2022-08-19T03:03:29;18.80;99.90
20284;DHT22;10301;50.832;4.080;2022-08-19T03:06:13;18.80;99.90
20284;DHT22;10301;50.832;4.080;2022-08-19T03:08:41;18.80;99.90
20284;DHT22;10301;50.832;4.080;2022-08-19T03:11:13;18.70;99.90
20284;DHT22;10301;50.832;4.080;2022-08-19T03:13:39;18.60;99.90
20284;DHT22;10301;50.832;4.080;2022-08-19T03:16:05;18.70;99.90
20284;DHT22;10301;50.832;4.080;2022-08-19T03:18:31;18.80;99.90
20284;DHT22;10301;50.832;4.080;2022-08-19T03:20:57;18.80;99.90
20284;DHT22;10301;50.832;4.080;2022-08-19T03:23:23;18.70;99.90
20284;DHT22;10301;50.832;4.080;2022-08-19T03:25:50;18.60;99.90
20284;DHT22;10301;50.832;4.080;2022-08-19T03:28:16;18.60;99.90
20284;DHT22;10301;50.832;4.080;2022-08-19T03:30:53;18.40;99.90
20284;DHT22;10301;50.832;4.080;2022-08-19T03:33:22;18.30;99.90
20284;DHT22;10301;50.832;4.080;2022-08-19T03:38:28;18.30;99.90
20284;DHT22;10301;50.832;4.080;2022-08-19T03:40:54;18.40;99.90
20284;DHT22;10301;50.832;4.080;2022-08-19T03:43:19;18.30;99.90
20284;DHT22;10301;50.832;4.080;2022-08-19T03:45:45;18.30;99.90
20284;DHT22;10301;50.832;4.080;2022-08-19T03:48:10;18.30;99.90
20284;DHT22;10301;50.832;4.080;2022-08-19T03:50:40;18.30;99.90
20284;DHT22;10301;50.832;4.080;2022-08-19T03:53:06;18.30;99.90
20284;DHT22;10301;50.832;4.080;2022-08-19T03:55:32;18.40;99.90
20284;DHT22;10301;50.832;4.080;2022-08-19T03:57:58;18.30;99.90
20284;DHT22;10301;50.832;4.080;2022-08-19T04:00:24;18.30;99.90
20284;DHT22;10301;50.832;4.080;2022-08-19T04:02:49;18.20;99.90
20284;DHT22;10301;50.832;4.080;2022-08-19T04:05:15;18.40;99.90
20284;DHT22;10301;50.832;4.080;2022-08-19T04:07:41;18.30;99.90
20284;DHT22;10301;50.832;4.080;2022-08-19T04:10:06;18.30;99.90
20284;DHT22;10301;50.832;4.080;2022-08-19T04:12:32;18.20;99.90
20284;DHT22;10301;50.832;4.080;2022-08-19T04:14:58;18.10;99.90
20284;DHT22;10301;50.832;4.080;2022-08-19T04:17:23;18.10;99.90
20284;DHT22;10301;50.832;4.080;2022-08-19T04:19:49;18.10;99.90
20284;DHT22;10301;50.832;4.080;2022-08-19T04:22:15;18.10;99.90
20284;DHT22;10301;50.832;4.080;2022-08-19T04:24:40;18.10;99.90
20284;DHT22;10301;50.832;4.080;2022-08-19T04:27:06;18.10;99.90
20284;DHT22;10301;50.832;4.080;2022-08-19T04:29:32;18.00;99.90
20284;DHT22;10301;50.832;4.080;2022-08-19T04:31:59;18.00;99.90
20284;DHT22;10301;50.832;4.080;2022-08-19T04:34:27;18.00;99.90
20284;DHT22;10301;50.832;4.080;2022-08-19T04:36:56;18.10;99.90
20284;DHT22;10301;50.832;4.080;2022-08-19T04:39:29;18.10;99.90
20284;DHT22;10301;50.832;4.080;2022-08-19T04:42:15;18.10;99.90
20284;DHT22;10301;50.832;4.080;2022-08-19T04:45:00;18.10;99.90
20284;DHT22;10301;50.832;4.080;2022-08-19T04:47:26;18.00;99.90
20284;DHT22;10301;50.832;4.080;2022-08-19T04:49:51;18.00;99.90
20284;DHT22;10301;50.832;4.080;2022-08-19T04:52:17;17.90;99.90
20284;DHT22;10301;50.832;4.080;2022-08-19T04:54:42;17.90;99.90
20284;DHT22;10301;50.832;4.080;2022-08-19T04:57:09;18.00;99.90
20284;DHT22;10301;50.832;4.080;2022-08-19T04:59:35;18.00;99.90
20284;DHT22;10301;50.832;4.080;2022-08-19T05:02:01;18.10;99.90
20284;DHT22;10301;50.832;4.080;2022-08-19T05:04:27;18.10;99.90
20284;DHT22;10301;50.832;4.080;2022-08-19T05:06:57;18.10;99.90
20284;DHT22;10301;50.832;4.080;2022-08-19T05:09:22;18.10;99.90
20284;DHT22;10301;50.832;4.080;2022-08-19T05:11:48;18.20;99.90
20284;DHT22;10301;50.832;4.080;2022-08-19T05:14:18;18.10;99.90
20284;DHT22;10301;50.832;4.080;2022-08-19T05:16:45;18.10;99.90
20284;DHT22;10301;50.832;4.080;2022-08-19T05:19:10;18.20;99.90
20284;DHT22;10301;50.832;4.080;2022-08-19T05:21:55;18.10;99.90
20284;DHT22;10301;50.832;4.080;2022-08-19T05:24:49;18.20;99.90
20284;DHT22;10301;50.832;4.080;2022-08-19T05:27:15;18.30;99.90
20284;DHT22;10301;50.832;4.080;2022-08-19T05:29:41;18.50;99.90
20284;DHT22;10301;50.832;4.080;2022-08-19T05:32:06;18.70;99.90
20284;DHT22;10301;50.832;4.080;2022-08-19T05:34:36;18.70;99.90
20284;DHT22;10301;50.832;4.080;2022-08-19T05:37:04;18.50;99.90
20284;DHT22;10301;50.832;4.080;2022-08-19T05:39:31;18.30;99.90
20284;DHT22;10301;50.832;4.080;2022-08-19T05:42:09;18.50;99.90
20284;DHT22;10301;50.832;4.080;2022-08-19T05:44:39;18.70;99.90
20284;DHT22;10301;50.832;4.080;2022-08-19T05:47:10;18.80;99.90
20284;DHT22;10301;50.832;4.080;2022-08-19T05:49:37;18.80;99.90
20284;DHT22;10301;50.832;4.080;2022-08-19T05:52:09;18.70;99.90
20284;DHT22;10301;50.832;4.080;2022-08-19T05:54:37;18.70;99.90
20284;DHT22;10301;50.832;4.080;2022-08-19T05:57:05;18.70;99.90
20284;DHT22;10301;50.832;4.080;2022-08-19T05:59:31;19.00;99.90
20284;DHT22;10301;50.832;4.080;2022-08-19T06:01:56;19.00;99.90
20284;DHT22;10301;50.832;4.080;2022-08-19T06:04:23;18.90;99.90
20284;DHT22;10301;50.832;4.080;2022-08-19T06:06:50;19.00;99.90
20284;DHT22;10301;50.832;4.080;2022-08-19T06:09:20;19.30;99.90
20284;DHT22;10301;50.832;4.080;2022-08-19T06:11:49;19.40;99.90
20284;DHT22;10301;50.832;4.080;2022-08-19T06:14:20;19.50;99.90
20284;DHT22;10301;50.832;4.080;2022-08-19T06:16:47;19.50;99.90
20284;DHT22;10301;50.832;4.080;2022-08-19T06:19:17;19.60;99.90
20284;DHT22;10301;50.832;4.080;2022-08-19T06:21:46;19.60;99.90
20284;DHT22;10301;50.832;4.080;2022-08-19T06:24:15;19.70;99.90
20284;DHT22;10301;50.832;4.080;2022-08-19T06:26:43;19.90;99.90
20284;DHT22;10301;50.832;4.080;2022-08-19T06:29:11;20.00;99.90
20284;DHT22;10301;50.832;4.080;2022-08-19T06:31:40;20.10;99.90
20284;DHT22;10301;50.832;4.080;2022-08-19T06:34:06;20.50;99.90
20284;DHT22;10301;50.832;4.080;2022-08-19T06:36:37;20.70;99.90
20284;DHT22;10301;50.832;4.080;2022-08-19T06:39:11;20.80;99.90
20284;DHT22;10301;50.832;4.080;2022-08-19T06:41:38;20.70;99.90
20284;DHT22;10301;50.832;4.080;2022-08-19T06:44:05;20.50;99.90
20284;DHT22;10301;50.832;4.080;2022-08-19T06:46:31;20.50;99.90
20284;DHT22;10301;50.832;4.080;2022-08-19T06:48:57;20.60;99.90
20284;DHT22;10301;50.832;4.080;2022-08-19T06:51:24;20.90;99.90
20284;DHT22;10301;50.832;4.080;2022-08-19T06:53:51;21.30;99.90
20284;DHT22;10301;50.832;4.080;2022-08-19T06:56:19;21.20;99.90
20284;DHT22;10301;50.832;4.080;2022-08-19T06:58:46;21.40;99.90
20284;DHT22;10301;50.832;4.080;2022-08-19T07:01:13;21.30;99.90
20284;DHT22;10301;50.832;4.080;2022-08-19T07:03:39;21.70;99.90
20284;DHT22;10301;50.832;4.080;2022-08-19T07:06:05;21.80;99.90
20284;DHT22;10301;50.832;4.080;2022-08-19T07:08:32;22.20;99.90
20284;DHT22;10301;50.832;4.080;2022-08-19T07:10:58;22.50;99.90
20284;DHT22;10301;50.832;4.080;2022-08-19T07:13:24;22.70;99.90
20284;DHT22;10301;50.832;4.080;2022-08-19T07:15:50;22.70;99.90
20284;DHT22;10301;50.832;4.080;2022-08-19T07:18:18;22.60;99.90
20284;DHT22;10301;50.832;4.080;2022-08-19T07:20:44;22.50;99.90
20284;DHT22;10301;50.832;4.080;2022-08-19T07:23:10;22.50;99.90
20284;DHT22;10301;50.832;4.080;2022-08-19T07:25:39;22.50;99.90
20284;DHT22;10301;50.832;4.080;2022-08-19T07:28:05;22.60;99.90
20284;DHT22;10301;50.832;4.080;2022-08-19T07:30:32;22.70;99.90
20284;DHT22;10301;50.832;4.080;2022-08-19T07:33:01;22.80;99.90
20284;DHT22;10301;50.832;4.080;2022-08-19T07:35:26;22.70;99.90
20284;DHT22;10301;50.832;4.080;2022-08-19T07:37:53;22.70;99.90
20284;DHT22;10301;50.832;4.080;2022-08-19T07:40:19;22.70;99.90
20284;DHT22;10301;50.832;4.080;2022-08-19T07:42:45;22.70;99.90
20284;DHT22;10301;50.832;4.080;2022-08-19T07:45:10;22.40;99.90
20284;DHT22;10301;50.832;4.080;2022-08-19T07:47:36;22.30;99.90
20284;DHT22;10301;50.832;4.080;2022-08-19T07:50:02;22.40;99.90
20284;DHT22;10301;50.832;4.080;2022-08-19T07:52:29;22.50;99.90
20284;DHT22;10301;50.832;4.080;2022-08-19T07:54:55;22.90;99.90
20284;DHT22;10301;50.832;4.080;2022-08-19T07:57:21;22.40;99.90
20284;DHT22;10301;50.832;4.080;2022-08-19T07:59:46;22.20;99.90
20284;DHT22;10301;50.832;4.080;2022-08-19T08:02:12;22.40;99.90
20284;DHT22;10301;50.832;4.080;2022-08-19T08:04:38;22.70;99.90
20284;DHT22;10301;50.832;4.080;2022-08-19T08:07:22;22.80;99.90
20284;DHT22;10301;50.832;4.080;2022-08-19T08:10:06;22.90;99.90
20284;DHT22;10301;50.832;4.080;2022-08-19T08:12:37;23.00;99.90
20284;DHT22;10301;50.832;4.080;2022-08-19T08:15:09;23.10;99.90
20284;DHT22;10301;50.832;4.080;2022-08-19T08:17:35;23.10;99.90
20284;DHT22;10301;50.832;4.080;2022-08-19T08:20:04;23.00;99.90
20284;DHT22;10301;50.832;4.080;2022-08-19T08:22:32;22.90;99.90
20284;DHT22;10301;50.832;4.080;2022-08-19T08:25:21;23.10;99.90
20284;DHT22;10301;50.832;4.080;2022-08-19T08:27:49;23.10;99.90
20284;DHT22;10301;50.832;4.080;2022-08-19T08:30:19;23.30;99.90
20284;DHT22;10301;50.832;4.080;2022-08-19T08:32:45;23.30;99.90
20284;DHT22;10301;50.832;4.080;2022-08-19T08:35:14;23.40;99.90
20284;DHT22;10301;50.832;4.080;2022-08-19T08:37:40;23.50;99.90
20284;DHT22;10301;50.832;4.080;2022-08-19T08:40:26;23.70;99.90
20284;DHT22;10301;50.832;4.080;2022-08-19T08:43:02;24.00;99.90
20284;DHT22;10301;50.832;4.080;2022-08-19T08:45:30;23.90;99.90
20284;DHT22;10301;50.832;4.080;2022-08-19T08:48:02;23.80;99.90
20284;DHT22;10301;50.832;4.080;2022-08-19T08:50:33;23.70;99.90
20284;DHT22;10301;50.832;4.080;2022-08-19T08:53:01;23.60;99.90
20284;DHT22;10301;50.832;4.080;2022-08-19T08:55:29;23.70;99.90
20284;DHT22;10301;50.832;4.080;2022-08-19T08:58:01;24.00;99.90
20284;DHT22;10301;50.832;4.080;2022-08-19T09:00:31;24.10;99.90
20284;DHT22;10301;50.832;4.080;2022-08-19T09:02:58;24.00;99.90
20284;DHT22;10301;50.832;4.080;2022-08-19T09:05:41;23.80;99.90
20284;DHT22;10301;50.832;4.080;2022-08-19T09:08:24;23.70;99.90
20284;DHT22;10301;50.832;4.080;2022-08-19T09:10:55;23.40;99.90
20284;DHT22;10301;50.832;4.080;2022-08-19T09:16:22;24.00;99.90
20284;DHT22;10301;50.832;4.080;2022-08-19T09:18:54;24.10;99.90
20284;DHT22;10301;50.832;4.080;2022-08-19T09:21:21;24.20;99.90
20284;DHT22;10301;50.832;4.080;2022-08-19T09:23:48;24.00;99.90
20284;DHT22;10301;50.832;4.080;2022-08-19T09:26:17;23.90;99.90
20284;DHT22;10301;50.832;4.080;2022-08-19T09:28:44;23.20;99.90
20284;DHT22;10301;50.832;4.080;2022-08-19T09:31:17;23.40;99.90
20284;DHT22;10301;50.832;4.080;2022-08-19T09:33:43;23.50;99.90
20284;DHT22;10301;50.832;4.080;2022-08-19T09:36:13;23.70;99.90
20284;DHT22;10301;50.832;4.080;2022-08-19T09:38:40;23.60;99.90
20284;DHT22;10301;50.832;4.080;2022-08-19T09:41:15;23.60;99.90
20284;DHT22;10301;50.832;4.080;2022-08-19T09:43:44;23.40;99.90
20284;DHT22;10301;50.832;4.080;2022-08-19T09:46:10;23.80;99.90
20284;DHT22;10301;50.832;4.080;2022-08-19T09:48:40;24.10;99.90
20284;DHT22;10301;50.832;4.080;2022-08-19T09:51:09;24.20;99.90
20284;DHT22;10301;50.832;4.080;2022-08-19T09:53:35;24.30;99.90
20284;DHT22;10301;50.832;4.080;2022-08-19T09:56:02;24.50;99.90
20284;DHT22;10301;50.832;4.080;2022-08-19T09:58:28;24.60;99.90
20284;DHT22;10301;50.832;4.080;2022-08-19T10:00:56;24.50;99.90
20284;DHT22;10301;50.832;4.080;2022-08-19T10:03:24;24.40;99.90
20284;DHT22;10301;50.832;4.080;2022-08-19T10:05:50;24.50;99.90
20284;DHT22;10301;50.832;4.080;2022-08-19T10:08:21;24.50;99.90
20284;DHT22;10301;50.832;4.080;2022-08-19T10:10:48;24.30;99.90
20284;DHT22;10301;50.832;4.080;2022-08-19T10:13:16;24.10;99.90
20284;DHT22;10301;50.832;4.080;2022-08-19T10:15:43;24.10;99.90
20284;DHT22;10301;50.832;4.080;2022-08-19T10:18:09;24.00;99.90
20284;DHT22;10301;50.832;4.080;2022-08-19T10:20:35;24.30;99.90
20284;DHT22;10301;50.832;4.080;2022-08-19T10:23:02;24.60;99.90
20284;DHT22;10301;50.832;4.080;2022-08-19T10:25:28;24.60;99.90
20284;DHT22;10301;50.832;4.080;2022-08-19T10:27:54;24.30;99.90
20284;DHT22;10301;50.832;4.080;2022-08-19T10:30:20;24.40;99.90
20284;DHT22;10301;50.832;4.080;2022-08-19T10:32:46;25.10;99.90
20284;DHT22;10301;50.832;4.080;2022-08-19T10:35:13;25.50;99.90
20284;DHT22;10301;50.832;4.080;2022-08-19T10:37:39;25.90;99.90
20284;DHT22;10301;50.832;4.080;2022-08-19T10:40:06;26.10;99.90
20284;DHT22;10301;50.832;4.080;2022-08-19T10:42:33;25.50;99.90
20284;DHT22;10301;50.832;4.080;2022-08-19T10:44:59;25.00;99.90
20284;DHT22;10301;50.832;4.080;2022-08-19T10:47:25;25.10;99.90
20284;DHT22;10301;50.832;4.080;2022-08-19T10:49:51;25.20;99.90
20284;DHT22;10301;50.832;4.080;2022-08-19T10:52:36;25.00;99.90
20284;DHT22;10301;50.832;4.080;2022-08-19T10:55:04;25.10;99.90
20284;DHT22;10301;50.832;4.080;2022-08-19T10:57:48;25.20;99.90
20284;DHT22;10301;50.832;4.080;2022-08-19T11:00:14;25.10;99.90
20284;DHT22;10301;50.832;4.080;2022-08-19T11:02:41;24.50;99.90
20284;DHT22;10301;50.832;4.080;2022-08-19T11:05:08;24.60;99.90
20284;DHT22;10301;50.832;4.080;2022-08-19T11:07:39;25.00;99.90
20284;DHT22;10301;50.832;4.080;2022-08-19T11:10:06;25.50;99.90
20284;DHT22;10301;50.832;4.080;2022-08-19T11:12:33;25.70;99.90
20284;DHT22;10301;50.832;4.080;2022-08-19T11:14:59;26.30;99.90
20284;DHT22;10301;50.832;4.080;2022-08-19T11:17:25;26.90;99.90
20284;DHT22;10301;50.832;4.080;2022-08-19T11:19:50;27.10;99.90
20284;DHT22;10301;50.832;4.080;2022-08-19T11:22:16;27.40;99.90
20284;DHT22;10301;50.832;4.080;2022-08-19T11:24:42;27.30;99.90
20284;DHT22;10301;50.832;4.080;2022-08-19T11:27:09;26.70;99.90
20284;DHT22;10301;50.832;4.080;2022-08-19T11:29:38;26.30;99.90
20284;DHT22;10301;50.832;4.080;2022-08-19T11:32:06;26.50;99.90
20284;DHT22;10301;50.832;4.080;2022-08-19T11:34:32;26.30;99.90
20284;DHT22;10301;50.832;4.080;2022-08-19T11:36:58;26.60;99.90
20284;DHT22;10301;50.832;4.080;2022-08-19T11:39:28;26.40;99.90
20284;DHT22;10301;50.832;4.080;2022-08-19T11:41:54;26.50;99.90
20284;DHT22;10301;50.832;4.080;2022-08-19T11:44:20;26.80;99.90
20284;DHT22;10301;50.832;4.080;2022-08-19T11:46:46;26.30;99.90
20284;DHT22;10301;50.832;4.080;2022-08-19T11:49:14;26.30;99.90
20284;DHT22;10301;50.832;4.080;2022-08-19T11:51:41;27.00;99.90
20284;DHT22;10301;50.832;4.080;2022-08-19T11:54:11;27.40;99.90
20284;DHT22;10301;50.832;4.080;2022-08-19T11:56:39;27.50;99.90
20284;DHT22;10301;50.832;4.080;2022-08-19T11:59:04;27.20;99.90
20284;DHT22;10301;50.832;4.080;2022-08-19T12:01:30;27.20;99.90
20284;DHT22;10301;50.832;4.080;2022-08-19T12:03:57;27.40;99.90
20284;DHT22;10301;50.832;4.080;2022-08-19T12:06:26;27.30;99.90
20284;DHT22;10301;50.832;4.080;2022-08-19T12:08:58;27.10;99.90
20284;DHT22;10301;50.832;4.080;2022-08-19T12:11:24;26.50;99.90
20284;DHT22;10301;50.832;4.080;2022-08-19T12:13:50;26.50;99.90
20284;DHT22;10301;50.832;4.080;2022-08-19T12:16:23;26.60;99.90
20284;DHT22;10301;50.832;4.080;2022-08-19T12:18:49;26.10;99.90
20284;DHT22;10301;50.832;4.080;2022-08-19T12:21:19;26.00;99.90
20284;DHT22;10301;50.832;4.080;2022-08-19T12:23:48;26.00;99.90
20284;DHT22;10301;50.832;4.080;2022-08-19T12:26:15;26.70;99.90
20284;DHT22;10301;50.832;4.080;2022-08-19T12:28:42;26.90;99.90
20284;DHT22;10301;50.832;4.080;2022-08-19T12:31:08;27.50;99.90
20284;DHT22;10301;50.832;4.080;2022-08-19T12:33:34;27.30;99.90
20284;DHT22;10301;50.832;4.080;2022-08-19T12:36:05;27.00;99.90
20284;DHT22;10301;50.832;4.080;2022-08-19T12:38:32;26.70;99.90
20284;DHT22;10301;50.832;4.080;2022-08-19T12:40:58;26.80;99.90
20284;DHT22;10301;50.832;4.080;2022-08-19T12:43:24;27.20;99.90
20284;DHT22;10301;50.832;4.080;2022-08-19T12:45:50;27.70;99.90
20284;DHT22;10301;50.832;4.080;2022-08-19T12:48:16;28.00;99.90
20284;DHT22;10301;50.832;4.080;2022-08-19T12:50:44;27.70;99.90
20284;DHT22;10301;50.832;4.080;2022-08-19T12:53:11;27.50;99.90
20284;DHT22;10301;50.832;4.080;2022-08-19T12:55:37;27.60;99.90
20284;DHT22;10301;50.832;4.080;2022-08-19T12:58:03;27.60;99.90
20284;DHT22;10301;50.832;4.080;2022-08-19T13:00:29;27.40;99.90
20284;DHT22;10301;50.832;4.080;2022-08-19T13:02:57;27.20;99.90
20284;DHT22;10301;50.832;4.080;2022-08-19T13:05:26;27.20;99.90
20284;DHT22;10301;50.832;4.080;2022-08-19T13:07:54;27.30;99.90
20284;DHT22;10301;50.832;4.080;2022-08-19T13:10:24;27.70;99.90
20284;DHT22;10301;50.832;4.080;2022-08-19T13:12:53;28.10;99.90
20284;DHT22;10301;50.832;4.080;2022-08-19T13:15:20;28.20;99.90
20284;DHT22;10301;50.832;4.080;2022-08-19T13:17:47;28.30;99.90
20284;DHT22;10301;50.832;4.080;2022-08-19T13:20:18;28.10;99.90
20284;DHT22;10301;50.832;4.080;2022-08-19T13:22:44;27.90;99.90
20284;DHT22;10301;50.832;4.080;2022-08-19T13:25:11;27.40;99.90
20284;DHT22;10301;50.832;4.080;2022-08-19T13:27:37;26.70;99.90
20284;DHT22;10301;50.832;4.080;2022-08-19T13:30:04;26.10;99.90
20284;DHT22;10301;50.832;4.080;2022-08-19T13:32:49;25.70;99.90
20284;DHT22;10301;50.832;4.080;2022-08-19T13:35:33;25.30;99.90
20284;DHT22;10301;50.832;4.080;2022-08-19T13:37:58;25.20;99.90
20284;DHT22;10301;50.832;4.080;2022-08-19T13:40:26;25.10;99.90
20284;DHT22;10301;50.832;4.080;2022-08-19T13:42:53;24.90;99.90
20284;DHT22;10301;50.832;4.080;2022-08-19T13:45:24;25.00;99.90
20284;DHT22;10301;50.832;4.080;2022-08-19T13:47:51;25.10;99.90
20284;DHT22;10301;50.832;4.080;2022-08-19T13:50:21;25.30;99.90
20284;DHT22;10301;50.832;4.080;2022-08-19T13:52:48;25.60;99.90
20284;DHT22;10301;50.832;4.080;2022-08-19T13:55:15;25.80;99.90
20284;DHT22;10301;50.832;4.080;2022-08-19T13:57:41;26.00;99.90
20284;DHT22;10301;50.832;4.080;2022-08-19T14:00:16;26.10;99.90
20284;DHT22;10301;50.832;4.080;2022-08-19T14:02:47;26.10;99.90
20284;DHT22;10301;50.832;4.080;2022-08-19T14:05:15;26.20;99.90
20284;DHT22;10301;50.832;4.080;2022-08-19T14:07:41;26.00;99.90
20284;DHT22;10301;50.832;4.080;2022-08-19T14:10:09;26.00;99.90
20284;DHT22;10301;50.832;4.080;2022-08-19T14:12:36;25.90;99.90
20284;DHT22;10301;50.832;4.080;2022-08-19T14:15:03;25.60;99.90
20284;DHT22;10301;50.832;4.080;2022-08-19T14:17:29;25.70;99.90
20284;DHT22;10301;50.832;4.080;2022-08-19T14:20:00;25.10;99.90
20284;DHT22;10301;50.832;4.080;2022-08-19T14:22:29;25.40;99.90
20284;DHT22;10301;50.832;4.080;2022-08-19T14:24:56;25.60;99.90
20284;DHT22;10301;50.832;4.080;2022-08-19T14:27:22;25.90;99.90
20284;DHT22;10301;50.832;4.080;2022-08-19T14:29:49;26.10;99.90
20284;DHT22;10301;50.832;4.080;2022-08-19T14:32:14;26.70;99.90
20284;DHT22;10301;50.832;4.080;2022-08-19T14:34:40;26.80;99.90
20284;DHT22;10301;50.832;4.080;2022-08-19T14:37:06;26.70;99.90
20284;DHT22;10301;50.832;4.080;2022-08-19T14:39:33;26.60;99.90
20284;DHT22;10301;50.832;4.080;2022-08-19T14:41:58;26.40;99.90
20284;DHT22;10301;50.832;4.080;2022-08-19T14:44:24;26.30;99.90
20284;DHT22;10301;50.832;4.080;2022-08-19T14:46:50;26.50;99.90
20284;DHT22;10301;50.832;4.080;2022-08-19T14:49:16;26.60;99.90
20284;DHT22;10301;50.832;4.080;2022-08-19T14:51:41;26.60;99.90
20284;DHT22;10301;50.832;4.080;2022-08-19T14:54:07;26.20;99.90
20284;DHT22;10301;50.832;4.080;2022-08-19T14:56:33;26.20;99.90
20284;DHT22;10301;50.832;4.080;2022-08-19T14:58:58;26.50;99.90
20284;DHT22;10301;50.832;4.080;2022-08-19T15:01:26;26.50;99.90
20284;DHT22;10301;50.832;4.080;2022-08-19T15:03:52;26.90;99.90
20284;DHT22;10301;50.832;4.080;2022-08-19T15:06:19;26.80;99.90
20284;DHT22;10301;50.832;4.080;2022-08-19T15:08:45;26.80;99.90
20284;DHT22;10301;50.832;4.080;2022-08-19T15:11:15;26.40;99.90
20284;DHT22;10301;50.832;4.080;2022-08-19T15:13:43;26.10;99.90
20284;DHT22;10301;50.832;4.080;2022-08-19T15:16:10;25.50;99.90
20284;DHT22;10301;50.832;4.080;2022-08-19T15:18:36;25.30;99.90
20284;DHT22;10301;50.832;4.080;2022-08-19T15:21:02;25.10;99.90
20284;DHT22;10301;50.832;4.080;2022-08-19T15:23:28;25.10;99.90
20284;DHT22;10301;50.832;4.080;2022-08-19T15:25:54;25.50;99.90
20284;DHT22;10301;50.832;4.080;2022-08-19T15:28:25;25.70;99.90
20284;DHT22;10301;50.832;4.080;2022-08-19T15:30:51;25.80;99.90
20284;DHT22;10301;50.832;4.080;2022-08-19T15:33:17;25.80;99.90
20284;DHT22;10301;50.832;4.080;2022-08-19T15:35:46;25.40;99.90
20284;DHT22;10301;50.832;4.080;2022-08-19T15:38:12;24.40;99.90
20284;DHT22;10301;50.832;4.080;2022-08-19T15:40:39;23.10;99.90
20284;DHT22;10301;50.832;4.080;2022-08-19T15:43:06;23.10;99.90